sensor_id;sensor_type;location;lat;lon;timestamp;pressure;altitude;pressure_sealevel;temperature;humidity
68594;BME280;55563;52.416;13.548;2023-02-03T00:00:22;101766.13;;;0.56;100.00
68594;BME280;55563;52.416;13.548;2023-02-03T00:02:31;101764.16;;;0.58;100.00
68594;BME280;55563;52.416;13.548;2023-02-03T00:04:32;101757.84;;;0.60;100.00
68594;BME280;55563;52.416;13.548;2023-02-03T00:06:47;101751.22;;;0.58;100.00
68594;BME280;55563;52.416;13.548;2023-02-03T00:08:52;101737.97;;;0.61;100.00
68594;BME280;55563;52.416;13.548;2023-02-03T00:11:13;101732.81;;;0.61;100.00
68594;BME280;55563;52.416;13.548;2023-02-03T00:13:21;101732.81;;;0.61;100.00
68594;BME280;55563;52.416;13.548;2023-02-03T00:15:37;101731.50;;;0.65;100.00
68594;BME280;55563;52.416;13.548;2023-02-03T00:17:43;101723.06;;;0.63;100.00
68594;BME280;55563;52.416;13.548;2023-02-03T00:19:57;101722.75;;;0.66;100.00
68594;BME280;55563;52.416;13.548;2023-02-03T00:21:59;101714.34;;;0.64;100.00
68594;BME280;55563;52.416;13.548;2023-02-03T00:24:20;101714.66;;;0.69;100.00
68594;BME280;55563;52.416;13.548;2023-02-03T00:26:23;101704.31;;;0.69;100.00
68594;BME280;55563;52.416;13.548;2023-02-03T00:28:33;101693.66;;;0.72;100.00
68594;BME280;55563;52.416;13.548;2023-02-03T00:30:41;101700.25;;;0.74;100.00
68594;BME280;55563;52.416;13.548;2023-02-03T00:32:48;101695.38;;;0.79;100.00
68594;BME280;55563;52.416;13.548;2023-02-03T00:35:09;101692.44;;;0.82;100.00
68594;BME280;55563;52.416;13.548;2023-02-03T00:37:16;101677.94;;;0.81;100.00
68594;BME280;55563;52.416;13.548;2023-02-03T00:39:37;101671.75;;;0.82;100.00
68594;BME280;55563;52.416;13.548;2023-02-03T00:41:44;101669.97;;;0.83;100.00
68594;BME280;55563;52.416;13.548;2023-02-03T00:44:12;101677.22;;;0.87;100.00
68594;BME280;55563;52.416;13.548;2023-02-03T00:46:27;101668.66;;;0.87;100.00
68594;BME280;55563;52.416;13.548;2023-02-03T00:48:48;101653.31;;;0.85;100.00
68594;BME280;55563;52.416;13.548;2023-02-03T00:51:02;101633.44;;;0.86;100.00
68594;BME280;55563;52.416;13.548;2023-02-03T00:53:16;101629.69;;;0.88;100.00
68594;BME280;55563;52.416;13.548;2023-02-03T00:55:30;101637.91;;;0.92;100.00
68594;BME280;55563;52.416;13.548;2023-02-03T00:57:44;101635.00;;;0.95;100.00
68594;BME280;55563;52.416;13.548;2023-02-03T01:00:19;101639.31;;;1.03;100.00
68594;BME280;55563;52.416;13.548;2023-02-03T01:02:39;101635.75;;;1.04;100.00
68594;BME280;55563;52.416;13.548;2023-02-03T01:04:47;101648.34;;;1.07;100.00
68594;BME280;55563;52.416;13.548;2023-02-03T01:07:08;101646.38;;;1.09;100.00
68594;BME280;55563;52.416;13.548;2023-02-03T01:09:23;101637.66;;;1.10;100.00
68594;BME280;55563;52.416;13.548;2023-02-03T01:11:43;101631.97;;;1.14;100.00
68594;BME280;55563;52.416;13.548;2023-02-03T01:13:57;101625.97;;;1.14;100.00
68594;BME280;55563;52.416;13.548;2023-02-03T01:16:13;101619.63;;;1.16;100.00
68594;BME280;55563;52.416;13.548;2023-02-03T01:18:27;101614.75;;;1.21;100.00
68594;BME280;55563;52.416;13.548;2023-02-03T01:20:41;101619.13;;;1.21;100.00
68594;BME280;55563;52.416;13.548;2023-02-03T01:22:56;101622.50;;;1.21;100.00
68594;BME280;55563;52.416;13.548;2023-02-03T01:25:16;101623.78;;;1.25;100.00
68594;BME280;55563;52.416;13.548;2023-02-03T01:27:32;101619.06;;;1.29;100.00
68594;BME280;55563;52.416;13.548;2023-02-03T01:29:52;101609.53;;;1.29;100.00
68594;BME280;55563;52.416;13.548;2023-02-03T01:31:59;101594.75;;;1.30;100.00
68594;BME280;55563;52.416;13.548;2023-02-03T01:34:20;101595.56;;;1.30;100.00
68594;BME280;55563;52.416;13.548;2023-02-03T01:36:29;101598.66;;;1.34;100.00
68594;BME280;55563;52.416;13.548;2023-02-03T01:38:50;101587.47;;;1.34;100.00
68594;BME280;55563;52.416;13.548;2023-02-03T01:41:08;101579.19;;;1.38;100.00
68594;BME280;55563;52.416;13.548;2023-02-03T01:43:35;101572.38;;;1.37;100.00
68594;BME280;55563;52.416;13.548;2023-02-03T01:45:42;101570.59;;;1.38;100.00
68594;BME280;55563;52.416;13.548;2023-02-03T01:48:12;101569.28;;;1.42;100.00
68594;BME280;55563;52.416;13.548;2023-02-03T01:50:40;101565.72;;;1.43;100.00
68594;BME280;55563;52.416;13.548;2023-02-03T01:52:52;101569.38;;;1.48;100.00
68594;BME280;55563;52.416;13.548;2023-02-03T01:55:27;101552.22;;;1.47;100.00
68594;BME280;55563;52.416;13.548;2023-02-03T01:58:03;101537.50;;;1.48;100.00
68594;BME280;55563;52.416;13.548;2023-02-03T02:00:12;101536.50;;;1.49;100.00
68594;BME280;55563;52.416;13.548;2023-02-03T02:02:34;101517.38;;;1.50;100.00
68594;BME280;55563;52.416;13.548;2023-02-03T02:04:49;101523.22;;;1.52;100.00
68594;BME280;55563;52.416;13.548;2023-02-03T02:07:14;101520.78;;;1.50;100.00
68594;BME280;55563;52.416;13.548;2023-02-03T02:09:23;101521.06;;;1.55;100.00
68594;BME280;55563;52.416;13.548;2023-02-03T02:11:51;101515.88;;;1.55;100.00
68594;BME280;55563;52.416;13.548;2023-02-03T02:14:01;101520.09;;;1.56;100.00
68594;BME280;55563;52.416;13.548;2023-02-03T02:24:54;101476.03;;;1.56;100.00
68594;BME280;55563;52.416;13.548;2023-02-03T02:30:41;101460.06;;;1.53;100.00
68594;BME280;55563;52.416;13.548;2023-02-03T02:38:00;101440.94;;;1.54;100.00
68594;BME280;55563;52.416;13.548;2023-02-03T02:40:35;101418.78;;;1.51;100.00
68594;BME280;55563;52.416;13.548;2023-02-03T02:43:19;101404.59;;;1.47;100.00
68594;BME280;55563;52.416;13.548;2023-02-03T02:45:37;101395.84;;;1.48;100.00
68594;BME280;55563;52.416;13.548;2023-02-03T02:48:06;101392.78;;;1.45;100.00
68594;BME280;55563;52.416;13.548;2023-02-03T02:50:21;101388.78;;;1.42;100.00
68594;BME280;55563;52.416;13.548;2023-02-03T02:52:44;101379.78;;;1.38;100.00
68594;BME280;55563;52.416;13.548;2023-02-03T02:54:55;101377.25;;;1.30;100.00
68594;BME280;55563;52.416;13.548;2023-02-03T02:57:19;101359.59;;;1.34;100.00
68594;BME280;55563;52.416;13.548;2023-02-03T02:59:28;101365.31;;;1.29;100.00
68594;BME280;55563;52.416;13.548;2023-02-03T03:01:56;101370.50;;;1.29;100.00
68594;BME280;55563;52.416;13.548;2023-02-03T03:04:23;101345.56;;;1.28;100.00
68594;BME280;55563;52.416;13.548;2023-02-03T03:06:44;101344.34;;;1.24;100.00
68594;BME280;55563;52.416;13.548;2023-02-03T03:08:59;101337.28;;;1.18;100.00
68594;BME280;55563;52.416;13.548;2023-02-03T03:11:32;101333.88;;;1.17;100.00
68594;BME280;55563;52.416;13.548;2023-02-03T03:13:47;101331.94;;;1.19;100.00
68594;BME280;55563;52.416;13.548;2023-02-03T03:16:10;101326.47;;;1.14;100.00
68594;BME280;55563;52.416;13.548;2023-02-03T03:18:25;101320.13;;;1.17;100.00
68594;BME280;55563;52.416;13.548;2023-02-03T03:20:48;101326.38;;;1.22;100.00
68594;BME280;55563;52.416;13.548;2023-02-03T03:22:57;101314.63;;;1.20;100.00
68594;BME280;55563;52.416;13.548;2023-02-03T03:25:13;101311.38;;;1.18;100.00
68594;BME280;55563;52.416;13.548;2023-02-03T03:27:27;101280.97;;;1.20;100.00
68594;BME280;55563;52.416;13.548;2023-02-03T03:29:37;101270.84;;;1.25;100.00
68594;BME280;55563;52.416;13.548;2023-02-03T03:31:42;101271.56;;;1.19;100.00
68594;BME280;55563;52.416;13.548;2023-02-03T03:33:45;101268.34;;;1.17;100.00
68594;BME280;55563;52.416;13.548;2023-02-03T03:35:53;101262.28;;;1.24;100.00
68594;BME280;55563;52.416;13.548;2023-02-03T03:38:06;101263.06;;;1.25;100.00
68594;BME280;55563;52.416;13.548;2023-02-03T03:40:27;101251.94;;;1.24;100.00
68594;BME280;55563;52.416;13.548;2023-02-03T03:42:40;101251.38;;;1.29;100.00
68594;BME280;55563;52.416;13.548;2023-02-03T03:44:51;101253.44;;;1.34;100.00
68594;BME280;55563;52.416;13.548;2023-02-03T03:47:16;101245.09;;;1.38;100.00
68594;BME280;55563;52.416;13.548;2023-02-03T03:49:26;101237.09;;;1.33;100.00
68594;BME280;55563;52.416;13.548;2023-02-03T03:51:57;101243.06;;;1.34;100.00
68594;BME280;55563;52.416;13.548;2023-02-03T03:54:09;101235.91;;;1.36;100.00
68594;BME280;55563;52.416;13.548;2023-02-03T03:56:35;101224.00;;;1.41;100.00
68594;BME280;55563;52.416;13.548;2023-02-03T03:58:45;101223.63;;;1.44;100.00
68594;BME280;55563;52.416;13.548;2023-02-03T04:01:15;101222.66;;;1.45;100.00
68594;BME280;55563;52.416;13.548;2023-02-03T04:03:28;101207.31;;;1.44;100.00
68594;BME280;55563;52.416;13.548;2023-02-03T04:05:50;101217.91;;;1.49;100.00
68594;BME280;55563;52.416;13.548;2023-02-03T04:07:58;101224.69;;;1.50;100.00
68594;BME280;55563;52.416;13.548;2023-02-03T04:10:31;101218.53;;;1.51;100.00
68594;BME280;55563;52.416;13.548;2023-02-03T04:12:39;101209.41;;;1.55;100.00
68594;BME280;55563;52.416;13.548;2023-02-03T04:15:07;101220.41;;;1.57;100.00
68594;BME280;55563;52.416;13.548;2023-02-03T04:17:35;101198.69;;;1.58;100.00
68594;BME280;55563;52.416;13.548;2023-02-03T04:19:42;101188.78;;;1.68;100.00
68594;BME280;55563;52.416;13.548;2023-02-03T04:22:03;101183.59;;;1.68;100.00
68594;BME280;55563;52.416;13.548;2023-02-03T04:24:10;101186.66;;;1.71;100.00
68594;BME280;55563;52.416;13.548;2023-02-03T04:26:31;101179.31;;;1.75;100.00
68594;BME280;55563;52.416;13.548;2023-02-03T04:28:38;101179.53;;;1.80;100.00
68594;BME280;55563;52.416;13.548;2023-02-03T04:31:06;101171.13;;;1.78;100.00
68594;BME280;55563;52.416;13.548;2023-02-03T04:33:34;101159.06;;;1.85;100.00
68594;BME280;55563;52.416;13.548;2023-02-03T04:35:41;101150.53;;;1.91;100.00
68594;BME280;55563;52.416;13.548;2023-02-03T04:38:09;101148.03;;;2.04;100.00
68594;BME280;55563;52.416;13.548;2023-02-03T04:40:16;101145.84;;;2.08;100.00
68594;BME280;55563;52.416;13.548;2023-02-03T04:42:44;101142.09;;;2.17;100.00
68594;BME280;55563;52.416;13.548;2023-02-03T04:44:51;101131.81;;;2.30;100.00
68594;BME280;55563;52.416;13.548;2023-02-03T04:47:19;101115.03;;;2.26;100.00
68594;BME280;55563;52.416;13.548;2023-02-03T04:49:47;101106.53;;;2.39;100.00
68594;BME280;55563;52.416;13.548;2023-02-03T04:51:54;101106.94;;;2.42;100.00
68594;BME280;55563;52.416;13.548;2023-02-03T04:54:15;101104.38;;;2.49;100.00
68594;BME280;55563;52.416;13.548;2023-02-03T04:56:22;101098.59;;;2.53;100.00
68594;BME280;55563;52.416;13.548;2023-02-03T04:58:50;101097.81;;;2.59;100.00
68594;BME280;55563;52.416;13.548;2023-02-03T05:00:57;101089.03;;;2.60;100.00
68594;BME280;55563;52.416;13.548;2023-02-03T05:03:25;101085.66;;;2.67;100.00
68594;BME280;55563;52.416;13.548;2023-02-03T05:05:55;101089.06;;;2.67;100.00
68594;BME280;55563;52.416;13.548;2023-02-03T05:08:02;101087.09;;;2.76;100.00
68594;BME280;55563;52.416;13.548;2023-02-03T05:10:23;101088.47;;;2.78;100.00
68594;BME280;55563;52.416;13.548;2023-02-03T05:12:30;101084.72;;;2.81;100.00
68594;BME280;55563;52.416;13.548;2023-02-03T05:14:58;101076.34;;;2.92;100.00
68594;BME280;55563;52.416;13.548;2023-02-03T05:17:05;101075.16;;;2.94;100.00
68594;BME280;55563;52.416;13.548;2023-02-03T05:19:26;101081.53;;;2.92;100.00
68594;BME280;55563;52.416;13.548;2023-02-03T05:21:33;101076.56;;;2.97;100.00
68594;BME280;55563;52.416;13.548;2023-02-03T05:24:01;101073.38;;;3.01;100.00
68594;BME280;55563;52.416;13.548;2023-02-03T05:26:29;101071.75;;;3.07;100.00
68594;BME280;55563;52.416;13.548;2023-02-03T05:28:37;101071.97;;;3.12;100.00
68594;BME280;55563;52.416;13.548;2023-02-03T05:31:04;101075.00;;;3.16;100.00
68594;BME280;55563;52.416;13.548;2023-02-03T05:33:11;101074.38;;;3.20;100.00
68594;BME280;55563;52.416;13.548;2023-02-03T05:35:33;101068.78;;;3.23;100.00
68594;BME280;55563;52.416;13.548;2023-02-03T05:37:43;101064.19;;;3.32;100.00
68594;BME280;55563;52.416;13.548;2023-02-03T05:40:12;101061.41;;;3.40;100.00
68594;BME280;55563;52.416;13.548;2023-02-03T05:43:00;101054.63;;;3.39;100.00
68594;BME280;55563;52.416;13.548;2023-02-03T05:45:28;101050.59;;;3.43;100.00
68594;BME280;55563;52.416;13.548;2023-02-03T05:47:42;101053.19;;;3.56;100.00
68594;BME280;55563;52.416;13.548;2023-02-03T05:49:56;101044.78;;;3.61;100.00
68594;BME280;55563;52.416;13.548;2023-02-03T05:52:10;101040.78;;;3.65;100.00
68594;BME280;55563;52.416;13.548;2023-02-03T05:54:31;101024.00;;;3.67;100.00
68594;BME280;55563;52.416;13.548;2023-02-03T05:56:45;101022.16;;;3.74;100.00
68594;BME280;55563;52.416;13.548;2023-02-03T05:59:06;101014.34;;;3.87;100.00
68594;BME280;55563;52.416;13.548;2023-02-03T06:01:13;101012.13;;;3.91;100.00
68594;BME280;55563;52.416;13.548;2023-02-03T06:03:34;101013.13;;;3.90;100.00
68594;BME280;55563;52.416;13.548;2023-02-03T06:05:41;101011.94;;;3.92;100.00
68594;BME280;55563;52.416;13.548;2023-02-03T06:08:02;101009.47;;;4.04;100.00
68594;BME280;55563;52.416;13.548;2023-02-03T06:10:17;100994.88;;;4.03;100.00
68594;BME280;55563;52.416;13.548;2023-02-03T06:12:59;100980.66;;;4.12;100.00
68594;BME280;55563;52.416;13.548;2023-02-03T06:15:04;100977.81;;;4.14;100.00
68594;BME280;55563;52.416;13.548;2023-02-03T06:17:06;100976.81;;;4.15;100.00
68594;BME280;55563;52.416;13.548;2023-02-03T06:19:10;100965.19;;;4.17;100.00
68594;BME280;55563;52.416;13.548;2023-02-03T06:21:11;100966.13;;;4.36;100.00
68594;BME280;55563;52.416;13.548;2023-02-03T06:23:13;100965.53;;;4.27;100.00
68594;BME280;55563;52.416;13.548;2023-02-03T06:25:21;100969.09;;;4.39;100.00
68594;BME280;55563;52.416;13.548;2023-02-03T06:27:25;100959.81;;;4.50;100.00
68594;BME280;55563;52.416;13.548;2023-02-03T06:29:33;100952.84;;;4.44;100.00
68594;BME280;55563;52.416;13.548;2023-02-03T06:31:47;100956.00;;;4.53;100.00
68594;BME280;55563;52.416;13.548;2023-02-03T06:33:50;100954.56;;;4.57;100.00
68594;BME280;55563;52.416;13.548;2023-02-03T06:35:52;100962.75;;;4.60;100.00
68594;BME280;55563;52.416;13.548;2023-02-03T06:38:04;100963.97;;;4.58;100.00
68594;BME280;55563;52.416;13.548;2023-02-03T06:40:05;100961.53;;;4.63;100.00
68594;BME280;55563;52.416;13.548;2023-02-03T06:42:19;100972.06;;;4.74;100.00
68594;BME280;55563;52.416;13.548;2023-02-03T06:44:21;100959.44;;;4.78;100.00
68594;BME280;55563;52.416;13.548;2023-02-03T06:46:30;100948.16;;;4.84;100.00
68594;BME280;55563;52.416;13.548;2023-02-03T06:48:38;100953.78;;;4.81;100.00
68594;BME280;55563;52.416;13.548;2023-02-03T06:50:59;100945.72;;;4.89;100.00
68594;BME280;55563;52.416;13.548;2023-02-03T06:53:07;100939.28;;;4.92;100.00
68594;BME280;55563;52.416;13.548;2023-02-03T06:55:25;100939.00;;;5.00;100.00
68594;BME280;55563;52.416;13.548;2023-02-03T06:57:31;100924.13;;;5.07;100.00
68594;BME280;55563;52.416;13.548;2023-02-03T06:59:46;100930.69;;;5.09;100.00
68594;BME280;55563;52.416;13.548;2023-02-03T07:01:47;100923.84;;;5.15;100.00
68594;BME280;55563;52.416;13.548;2023-02-03T07:03:58;100924.78;;;5.20;100.00
68594;BME280;55563;52.416;13.548;2023-02-03T07:06:05;100919.78;;;5.19;100.00
68594;BME280;55563;52.416;13.548;2023-02-03T07:08:17;100916.91;;;5.27;100.00
68594;BME280;55563;52.416;13.548;2023-02-03T07:10:24;100907.41;;;5.33;100.00
68594;BME280;55563;52.416;13.548;2023-02-03T07:12:45;100905.19;;;5.36;100.00
68594;BME280;55563;52.416;13.548;2023-02-03T07:14:52;100904.59;;;5.34;100.00
68594;BME280;55563;52.416;13.548;2023-02-03T07:17:07;100894.31;;;5.39;100.00
68594;BME280;55563;52.416;13.548;2023-02-03T07:19:10;100883.84;;;5.46;100.00
68594;BME280;55563;52.416;13.548;2023-02-03T07:21:29;100882.44;;;5.43;100.00
68594;BME280;55563;52.416;13.548;2023-02-03T07:23:36;100871.50;;;5.53;100.00
68594;BME280;55563;52.416;13.548;2023-02-03T07:25:40;100871.63;;;5.58;100.00
68594;BME280;55563;52.416;13.548;2023-02-03T07:27:41;100865.25;;;5.72;100.00
68594;BME280;55563;52.416;13.548;2023-02-03T07:30:02;100866.25;;;5.71;100.00
68594;BME280;55563;52.416;13.548;2023-02-03T07:32:17;100861.69;;;5.66;100.00
68594;BME280;55563;52.416;13.548;2023-02-03T07:34:38;100858.22;;;5.72;100.00
68594;BME280;55563;52.416;13.548;2023-02-03T07:36:52;100849.72;;;5.77;100.00
68594;BME280;55563;52.416;13.548;2023-02-03T07:39:13;100833.94;;;5.72;100.00
68594;BME280;55563;52.416;13.548;2023-02-03T07:41:20;100839.09;;;5.79;100.00
68594;BME280;55563;52.416;13.548;2023-02-03T07:43:41;100840.41;;;5.88;100.00
68594;BME280;55563;52.416;13.548;2023-02-03T07:45:48;100838.38;;;5.90;100.00
68594;BME280;55563;52.416;13.548;2023-02-03T07:48:16;100825.22;;;5.96;100.00
68594;BME280;55563;52.416;13.548;2023-02-03T07:50:24;100825.44;;;5.95;100.00
68594;BME280;55563;52.416;13.548;2023-02-03T07:52:45;100813.78;;;5.97;100.00
68594;BME280;55563;52.416;13.548;2023-02-03T07:54:52;100813.78;;;5.97;100.00
68594;BME280;55563;52.416;13.548;2023-02-03T07:57:13;100807.97;;;5.95;100.00
68594;BME280;55563;52.416;13.548;2023-02-03T07:59:20;100808.56;;;5.97;100.00
68594;BME280;55563;52.416;13.548;2023-02-03T08:01:48;100794.50;;;5.98;100.00
68594;BME280;55563;52.416;13.548;2023-02-03T08:03:55;100796.44;;;6.03;100.00
68594;BME280;55563;52.416;13.548;2023-02-03T08:06:17;100793.25;;;6.01;100.00
68594;BME280;55563;52.416;13.548;2023-02-03T08:08:24;100784.41;;;6.02;100.00
68594;BME280;55563;52.416;13.548;2023-02-03T08:10:45;100789.63;;;6.02;100.00
68594;BME280;55563;52.416;13.548;2023-02-03T08:13:07;100786.00;;;6.03;100.00
68594;BME280;55563;52.416;13.548;2023-02-03T08:15:30;100773.28;;;6.06;100.00
68594;BME280;55563;52.416;13.548;2023-02-03T08:17:44;100771.69;;;6.05;100.00
68594;BME280;55563;52.416;13.548;2023-02-03T08:19:59;100761.63;;;6.09;100.00
68594;BME280;55563;52.416;13.548;2023-02-03T08:22:12;100756.97;;;6.11;100.00
68594;BME280;55563;52.416;13.548;2023-02-03T08:24:26;100750.72;;;6.12;100.00
68594;BME280;55563;52.416;13.548;2023-02-03T08:26:40;100735.63;;;6.14;100.00
68594;BME280;55563;52.416;13.548;2023-02-03T08:29:08;100737.00;;;6.17;100.00
68594;BME280;55563;52.416;13.548;2023-02-03T08:31:36;100739.16;;;6.20;100.00
68594;BME280;55563;52.416;13.548;2023-02-03T08:34:04;100737.34;;;6.20;100.00
68594;BME280;55563;52.416;13.548;2023-02-03T08:36:12;100723.28;;;6.21;100.00
68594;BME280;55563;52.416;13.548;2023-02-03T08:38:40;100719.66;;;6.22;100.00
68594;BME280;55563;52.416;13.548;2023-02-03T08:40:47;100722.47;;;6.21;100.00
68594;BME280;55563;52.416;13.548;2023-02-03T08:43:16;100714.44;;;6.22;100.00
68594;BME280;55563;52.416;13.548;2023-02-03T08:45:44;100722.59;;;6.26;100.00
68594;BME280;55563;52.416;13.548;2023-02-03T08:47:51;100715.09;;;6.29;100.00
68594;BME280;55563;52.416;13.548;2023-02-03T08:50:12;100718.81;;;6.33;100.00
68594;BME280;55563;52.416;13.548;2023-02-03T08:52:20;100705.44;;;6.30;100.00
68594;BME280;55563;52.416;13.548;2023-02-03T08:54:40;100699.78;;;6.33;100.00
68594;BME280;55563;52.416;13.548;2023-02-03T08:56:48;100700.13;;;6.36;100.00
68594;BME280;55563;52.416;13.548;2023-02-03T08:59:08;100684.00;;;6.39;100.00
68594;BME280;55563;52.416;13.548;2023-02-03T09:01:16;100695.22;;;6.40;100.00
68594;BME280;55563;52.416;13.548;2023-02-03T09:03:43;100690.00;;;6.40;100.00
68594;BME280;55563;52.416;13.548;2023-02-03T09:06:12;100692.16;;;6.43;100.00
68594;BME280;55563;52.416;13.548;2023-02-03T09:08:22;100686.16;;;6.42;100.00
68594;BME280;55563;52.416;13.548;2023-02-03T09:10:42;100685.13;;;6.43;100.00
68594;BME280;55563;52.416;13.548;2023-02-03T09:12:55;100682.84;;;6.47;100.00
68594;BME280;55563;52.416;13.548;2023-02-03T09:15:15;100676.59;;;6.48;100.00
68594;BME280;55563;52.416;13.548;2023-02-03T09:17:23;100673.97;;;6.48;100.00
68594;BME280;55563;52.416;13.548;2023-02-03T09:19:43;100674.78;;;6.48;100.00
68594;BME280;55563;52.416;13.548;2023-02-03T09:21:51;100666.16;;;6.48;100.00
68594;BME280;55563;52.416;13.548;2023-02-03T09:24:18;100656.75;;;6.47;100.00
68594;BME280;55563;52.416;13.548;2023-02-03T09:26:26;100663.09;;;6.51;100.00
68594;BME280;55563;52.416;13.548;2023-02-03T09:28:46;100654.00;;;6.53;100.00
68594;BME280;55563;52.416;13.548;2023-02-03T09:30:58;100651.63;;;6.52;100.00
68594;BME280;55563;52.416;13.548;2023-02-03T09:33:19;100647.25;;;6.69;100.00
68594;BME280;55563;52.416;13.548;2023-02-03T09:35:27;100642.94;;;6.75;100.00
68594;BME280;55563;52.416;13.548;2023-02-03T09:37:54;100623.53;;;6.71;100.00
68594;BME280;55563;52.416;13.548;2023-02-03T09:40:29;100633.41;;;6.69;100.00
68594;BME280;55563;52.416;13.548;2023-02-03T09:44:16;100613.09;;;6.71;100.00
68594;BME280;55563;52.416;13.548;2023-02-03T09:46:32;100623.44;;;6.66;100.00
68594;BME280;55563;52.416;13.548;2023-02-03T09:48:47;100612.72;;;6.67;100.00
68594;BME280;55563;52.416;13.548;2023-02-03T09:51:24;100610.38;;;6.66;100.00
68594;BME280;55563;52.416;13.548;2023-02-03T09:53:59;100625.88;;;6.72;100.00
68594;BME280;55563;52.416;13.548;2023-02-03T09:56:32;100611.81;;;6.73;100.00
68594;BME280;55563;52.416;13.548;2023-02-03T09:59:02;100601.22;;;6.80;100.00
68594;BME280;55563;52.416;13.548;2023-02-03T10:01:11;100602.03;;;6.80;100.00
68594;BME280;55563;52.416;13.548;2023-02-03T10:03:43;100586.91;;;6.82;100.00
68594;BME280;55563;52.416;13.548;2023-02-03T10:06:17;100594.28;;;6.85;100.00
68594;BME280;55563;52.416;13.548;2023-02-03T10:09:17;100577.56;;;6.86;100.00
68594;BME280;55563;52.416;13.548;2023-02-03T10:18:03;100542.19;;;6.95;100.00
68594;BME280;55563;52.416;13.548;2023-02-03T10:20:47;100533.88;;;6.98;100.00
68594;BME280;55563;52.416;13.548;2023-02-03T10:23:00;100523.53;;;7.04;100.00
68594;BME280;55563;52.416;13.548;2023-02-03T10:25:35;100520.41;;;7.07;100.00
68594;BME280;55563;52.416;13.548;2023-02-03T10:28:17;100518.03;;;7.05;100.00
68594;BME280;55563;52.416;13.548;2023-02-03T10:30:27;100523.84;;;7.07;100.00
68594;BME280;55563;52.416;13.548;2023-02-03T10:33:09;100508.00;;;7.14;100.00
68594;BME280;55563;52.416;13.548;2023-02-03T10:35:16;100519.25;;;7.14;100.00
68594;BME280;55563;52.416;13.548;2023-02-03T10:37:27;100517.66;;;7.13;100.00
68594;BME280;55563;52.416;13.548;2023-02-03T10:39:48;100518.47;;;7.14;100.00
68594;BME280;55563;52.416;13.548;2023-02-03T10:41:49;100526.28;;;7.14;100.00
68594;BME280;55563;52.416;13.548;2023-02-03T10:43:51;100524.69;;;7.13;100.00
68594;BME280;55563;52.416;13.548;2023-02-03T10:45:52;100517.66;;;7.13;100.00
68594;BME280;55563;52.416;13.548;2023-02-03T10:47:54;100528.91;;;7.14;100.00
68594;BME280;55563;52.416;13.548;2023-02-03T10:49:56;100515.84;;;7.14;100.00
68594;BME280;55563;52.416;13.548;2023-02-03T10:51:59;100517.19;;;7.16;100.00
68594;BME280;55563;52.416;13.548;2023-02-03T10:54:02;100552.97;;;7.16;100.00
68594;BME280;55563;52.416;13.548;2023-02-03T10:56:10;100590.13;;;7.18;100.00
68594;BME280;55563;52.416;13.548;2023-02-03T10:58:16;100603.41;;;7.16;100.00
68594;BME280;55563;52.416;13.548;2023-02-03T11:00:28;100645.84;;;6.90;100.00
68594;BME280;55563;52.416;13.548;2023-02-03T11:02:30;100623.34;;;6.49;100.00
68594;BME280;55563;52.416;13.548;2023-02-03T11:04:32;100609.28;;;6.50;100.00
68594;BME280;55563;52.416;13.548;2023-02-03T11:06:33;100597.25;;;6.49;100.00
68594;BME280;55563;52.416;13.548;2023-02-03T11:08:38;100571.25;;;6.54;100.00
68594;BME280;55563;52.416;13.548;2023-02-03T11:10:40;100561.88;;;6.70;100.00
68594;BME280;55563;52.416;13.548;2023-02-03T11:12:42;100573.66;;;6.72;100.00
68594;BME280;55563;52.416;13.548;2023-02-03T11:14:47;100586.34;;;6.80;100.00
68594;BME280;55563;52.416;13.548;2023-02-03T11:16:48;100580.34;;;6.80;100.00
68594;BME280;55563;52.416;13.548;2023-02-03T11:18:53;100582.69;;;6.81;100.00
68594;BME280;55563;52.416;13.548;2023-02-03T11:20:55;100576.41;;;6.94;100.00
68594;BME280;55563;52.416;13.548;2023-02-03T11:22:57;100576.31;;;6.89;100.00
68594;BME280;55563;52.416;13.548;2023-02-03T11:25:01;100567.19;;;6.91;100.00
68594;BME280;55563;52.416;13.548;2023-02-03T11:27:08;100570.59;;;6.92;100.00
68594;BME280;55563;52.416;13.548;2023-02-03T11:29:21;100574.09;;;6.97;100.00
68594;BME280;55563;52.416;13.548;2023-02-03T11:31:26;100566.56;;;7.01;100.00
68594;BME280;55563;52.416;13.548;2023-02-03T11:33:28;100562.72;;;7.04;100.00
68594;BME280;55563;52.416;13.548;2023-02-03T11:35:29;100559.63;;;7.07;100.00
68594;BME280;55563;52.416;13.548;2023-02-03T11:37:37;100570.06;;;7.07;100.00
68594;BME280;55563;52.416;13.548;2023-02-03T11:39:38;100579.19;;;7.04;100.00
68594;BME280;55563;52.416;13.548;2023-02-03T11:41:39;100556.69;;;7.03;100.00
68594;BME280;55563;52.416;13.548;2023-02-03T11:43:40;100566.13;;;7.04;100.00
68594;BME280;55563;52.416;13.548;2023-02-03T11:45:43;100578.41;;;7.04;100.00
68594;BME280;55563;52.416;13.548;2023-02-03T11:47:48;100577.59;;;7.03;100.00
68594;BME280;55563;52.416;13.548;2023-02-03T11:50:02;100581.47;;;7.00;100.00
68594;BME280;55563;52.416;13.548;2023-02-03T11:54:43;100594.44;;;6.95;100.00
68594;BME280;55563;52.416;13.548;2023-02-03T11:59:55;100572.31;;;7.31;100.00
68594;BME280;55563;52.416;13.548;2023-02-03T12:02:28;100589.72;;;7.26;100.00
68594;BME280;55563;52.416;13.548;2023-02-03T12:05:03;100582.28;;;7.34;100.00
68594;BME280;55563;52.416;13.548;2023-02-03T12:13:21;100548.22;;;7.29;100.00
68594;BME280;55563;52.416;13.548;2023-02-03T12:18:58;100551.31;;;7.43;100.00